Terminal Aerodrome Forecast
Issued by NWS

Home | Current Version | Previous Version | Text Only | Print | Product List | Glossary On
Versions: 1 2 3 4 5 6 7 8 9 10 11 12 13 14 15 16 17 18 19 20 21 22 23 24 25 26
000
FTPA31 PHFO 141100
TAFMKK
TAF
PHMK 141120Z 1412/1512 04007G13KT P6SM VCSH FEW020 SCT045 BKN200
     FM141900 04014G22KT P6SM VCSH SCT020 BKN040
     FM150900 04008G15KT P6SM FEW020 SCT040=

USA.gov is the U.S. government's official web portal to all federal, state and local government web resources and services.